createdAt,value
2018-11-07T00:00:07.497Z,1020.82671048
2018-11-07T00:00:19.981Z,1020.82671048
2018-11-07T00:00:32.401Z,1020.82671048
2018-11-07T00:00:44.808Z,1020.82671048
2018-11-07T00:00:57.363Z,1020.82671048
2018-11-07T00:01:09.802Z,1020.75898271
2018-11-07T00:01:22.193Z,1020.75898271
2018-11-07T00:01:34.607Z,1020.75898271
2018-11-07T00:01:47.001Z,1020.75898271
2018-11-07T00:01:59.610Z,1020.75898271
2018-11-07T00:02:12.014Z,1020.82671048
2018-11-07T00:02:24.472Z,1020.82671048
2018-11-07T00:02:36.879Z,1020.82671048
2018-11-07T00:02:49.817Z,1020.82671048
2018-11-07T00:03:03.845Z,1020.79284659
2018-11-07T00:03:16.260Z,1020.79284659
2018-11-07T00:03:28.671Z,1020.79284659
2018-11-07T00:03:41.079Z,1020.79284659
2018-11-07T00:03:53.484Z,1020.79284659
2018-11-07T00:04:05.913Z,1020.75898271
2018-11-07T00:04:18.368Z,1020.75898271
2018-11-07T00:04:30.780Z,1020.75898271
2018-11-07T00:04:43.294Z,1020.75898271
2018-11-07T00:04:55.697Z,1020.75898271
2018-11-07T00:05:08.167Z,1020.86057436
2018-11-07T00:05:20.560Z,1020.86057436
2018-11-07T00:05:32.981Z,1020.86057436
2018-11-07T00:05:45.385Z,1020.86057436
2018-11-07T00:05:57.809Z,1020.86057436
2018-11-07T00:06:10.236Z,1020.82671048
2018-11-07T00:06:22.797Z,1020.82671048
2018-11-07T00:06:35.179Z,1020.82671048
2018-11-07T00:06:47.567Z,1020.82671048
2018-11-07T00:06:59.997Z,1020.82671048
2018-11-07T00:07:12.561Z,1020.82671048
2018-11-07T00:07:24.975Z,1020.82671048
2018-11-07T00:07:37.386Z,1020.82671048
2018-11-07T00:07:50.255Z,1020.82671048
2018-11-07T00:08:04.141Z,1020.86057436
2018-11-07T00:08:19.528Z,1020.86057436
2018-11-07T00:08:33.659Z,1020.86057436
2018-11-07T00:08:46.465Z,1020.86057436
2018-11-07T00:08:58.877Z,1020.86057436
2018-11-07T00:09:11.304Z,1020.79284659
2018-11-07T00:09:23.726Z,1020.79284659
2018-11-07T00:09:36.151Z,1020.79284659
2018-11-07T00:09:48.563Z,1020.79284659
2018-11-07T00:10:00.997Z,1020.82671048
2018-11-07T00:10:13.414Z,1020.82671048
2018-11-07T00:10:25.838Z,1020.82671048
2018-11-07T00:10:38.237Z,1020.82671048
2018-11-07T00:10:50.637Z,1020.82671048
2018-11-07T00:11:03.072Z,1020.89443824
2018-11-07T00:11:15.478Z,1020.89443824
2018-11-07T00:11:27.898Z,1020.89443824
2018-11-07T00:11:40.311Z,1020.89443824
2018-11-07T00:11:52.701Z,1020.89443824
2018-11-07T00:12:05.094Z,1020.89443824
2018-11-07T00:12:17.524Z,1020.89443824
2018-11-07T00:12:29.929Z,1020.89443824
2018-11-07T00:12:42.329Z,1020.89443824
2018-11-07T00:12:54.736Z,1020.89443824
2018-11-07T00:13:07.154Z,1020.92830212
2018-11-07T00:13:19.586Z,1020.92830212
2018-11-07T00:13:31.982Z,1020.92830212
2018-11-07T00:13:44.426Z,1020.92830212
2018-11-07T00:13:56.980Z,1020.92830212
2018-11-07T00:14:09.925Z,1020.89443824
2018-11-07T00:14:22.355Z,1020.89443824
2018-11-07T00:14:34.782Z,1020.89443824
2018-11-07T00:14:47.185Z,1020.89443824
2018-11-07T00:14:59.614Z,1020.89443824
2018-11-07T00:15:12.047Z,1020.86057436
2018-11-07T00:15:24.470Z,1020.86057436
2018-11-07T00:15:36.918Z,1020.86057436
2018-11-07T00:15:49.328Z,1020.86057436
2018-11-07T00:16:01.722Z,1020.92830212
2018-11-07T00:16:14.135Z,1020.92830212
2018-11-07T00:16:26.601Z,1020.92830212
2018-11-07T00:16:39.033Z,1020.92830212
2018-11-07T00:16:51.423Z,1020.92830212
2018-11-07T00:17:03.805Z,1020.92830212
2018-11-07T00:17:16.206Z,1020.92830212
2018-11-07T00:17:28.620Z,1020.92830212
2018-11-07T00:17:41.029Z,1020.92830212
2018-11-07T00:17:53.416Z,1020.92830212
2018-11-07T00:18:05.800Z,1020.92830212
2018-11-07T00:18:18.189Z,1020.92830212
2018-11-07T00:18:30.604Z,1020.92830212
2018-11-07T00:18:43.030Z,1020.92830212
2018-11-07T00:18:55.422Z,1020.92830212
2018-11-07T00:19:07.831Z,1020.92830212
2018-11-07T00:19:20.274Z,1020.92830212
2018-11-07T00:19:33.222Z,1020.92830212
2018-11-07T00:19:45.879Z,1020.92830212
2018-11-07T00:19:58.351Z,1020.92830212
2018-11-07T00:20:10.903Z,1020.92830212
2018-11-07T00:20:23.748Z,1020.92830212
2018-11-07T00:20:36.203Z,1020.92830212
2018-11-07T00:20:48.696Z,1020.92830212
2018-11-07T00:21:01.118Z,1020.86057436
2018-11-07T00:21:13.548Z,1020.86057436
2018-11-07T00:21:25.940Z,1020.86057436
2018-11-07T00:21:38.352Z,1020.86057436
2018-11-07T00:21:50.742Z,1020.86057436
2018-11-07T00:22:03.166Z,1021.02989376
2018-11-07T00:22:15.678Z,1021.02989376
2018-11-07T00:22:28.058Z,1021.02989376
2018-11-07T00:22:40.489Z,1021.02989376
2018-11-07T00:22:52.878Z,1021.02989376
2018-11-07T00:23:05.270Z,1020.99602988
2018-11-07T00:23:17.693Z,1020.99602988
2018-11-07T00:23:30.143Z,1020.99602988
2018-11-07T00:23:42.560Z,1020.99602988
2018-11-07T00:23:54.945Z,1020.99602988
2018-11-07T00:24:07.524Z,1020.99602988
2018-11-07T00:24:19.932Z,1020.99602988
2018-11-07T00:24:32.345Z,1020.99602988
2018-11-07T00:24:44.968Z,1020.99602988
2018-11-07T00:24:57.395Z,1020.99602988
2018-11-07T00:25:09.900Z,1020.962166
2018-11-07T00:25:22.294Z,1020.962166
2018-11-07T00:25:34.709Z,1020.962166
2018-11-07T00:25:47.169Z,1020.962166
2018-11-07T00:25:59.572Z,1020.962166
2018-11-07T00:26:12.218Z,1021.02989376
2018-11-07T00:26:25.586Z,1021.02989376
2018-11-07T00:26:38.941Z,1021.02989376
2018-11-07T00:26:51.381Z,1021.02989376
2018-11-07T00:27:03.787Z,1020.92830212
2018-11-07T00:27:16.184Z,1020.92830212
2018-11-07T00:27:28.576Z,1020.92830212
2018-11-07T00:27:40.972Z,1020.92830212
2018-11-07T00:27:53.366Z,1020.92830212
2018-11-07T00:28:06.040Z,1020.89443824
2018-11-07T00:28:18.449Z,1020.89443824
2018-11-07T00:28:30.908Z,1020.89443824
2018-11-07T00:28:43.307Z,1020.89443824
2018-11-07T00:28:55.979Z,1020.89443824
2018-11-07T00:29:08.389Z,1020.962166
2018-11-07T00:29:20.816Z,1020.962166
2018-11-07T00:29:33.207Z,1020.962166
2018-11-07T00:29:45.616Z,1020.962166
2018-11-07T00:29:58.209Z,1020.962166
2018-11-07T00:30:11.803Z,1020.99602988
2018-11-07T00:30:25.463Z,1020.99602988
2018-11-07T00:30:37.913Z,1020.99602988
2018-11-07T00:30:50.322Z,1020.99602988
2018-11-07T00:31:02.781Z,1021.02989376
2018-11-07T00:31:15.197Z,1021.02989376
2018-11-07T00:31:27.615Z,1021.02989376
2018-11-07T00:31:40.001Z,1021.02989376
2018-11-07T00:31:52.388Z,1021.02989376
2018-11-07T00:32:04.853Z,1020.99602988
2018-11-07T00:32:17.256Z,1020.99602988
2018-11-07T00:32:29.744Z,1020.99602988
2018-11-07T00:32:42.153Z,1020.99602988
2018-11-07T00:32:54.634Z,1020.99602988
2018-11-07T00:33:07.094Z,1021.02989376
2018-11-07T00:33:19.495Z,1021.02989376
2018-11-07T00:33:31.906Z,1021.02989376
2018-11-07T00:33:44.302Z,1021.02989376
2018-11-07T00:33:56.712Z,1021.02989376
2018-11-07T00:34:09.150Z,1020.962166
2018-11-07T00:34:21.614Z,1020.962166
2018-11-07T00:34:34.022Z,1020.962166
2018-11-07T00:34:46.415Z,1020.962166
2018-11-07T00:34:59.336Z,1020.962166
2018-11-07T00:35:13.148Z,1020.962166
2018-11-07T00:35:26.219Z,1020.962166
2018-11-07T00:35:38.617Z,1020.962166
2018-11-07T00:35:51.004Z,1020.962166
2018-11-07T00:36:03.563Z,1021.06375765
2018-11-07T00:36:15.963Z,1021.06375765
2018-11-07T00:36:28.372Z,1021.06375765
2018-11-07T00:36:40.756Z,1021.06375765
2018-11-07T00:36:53.629Z,1021.06375765
2018-11-07T00:37:06.073Z,1020.962166
2018-11-07T00:37:18.486Z,1020.962166
2018-11-07T00:37:30.892Z,1020.962166
2018-11-07T00:37:43.314Z,1020.962166
2018-11-07T00:37:56.056Z,1020.962166
2018-11-07T00:38:08.481Z,1020.962166
2018-11-07T00:38:20.882Z,1020.962166
2018-11-07T00:38:33.287Z,1020.962166
2018-11-07T00:38:45.692Z,1020.962166
2018-11-07T00:38:58.104Z,1020.962166
2018-11-07T00:39:10.547Z,1020.99602988
2018-11-07T00:39:22.937Z,1020.99602988
2018-11-07T00:39:35.338Z,1020.99602988
2018-11-07T00:39:47.762Z,1020.99602988
2018-11-07T00:40:00.160Z,1020.99602988
2018-11-07T00:40:12.608Z,1020.99602988
2018-11-07T00:40:25.091Z,1020.99602988
2018-11-07T00:40:37.506Z,1020.99602988
2018-11-07T00:40:49.911Z,1020.99602988
2018-11-07T00:41:02.325Z,1021.02989376
2018-11-07T00:41:14.728Z,1021.02989376
2018-11-07T00:41:27.119Z,1021.02989376
2018-11-07T00:41:39.530Z,1021.02989376
2018-11-07T00:41:51.921Z,1021.02989376
2018-11-07T00:42:04.320Z,1020.99602988
2018-11-07T00:42:17.408Z,1020.99602988
2018-11-07T00:42:31.199Z,1020.99602988
2018-11-07T00:42:43.667Z,1020.99602988
2018-11-07T00:42:56.095Z,1020.99602988
2018-11-07T00:43:08.819Z,1020.99602988
2018-11-07T00:43:21.363Z,1020.99602988
2018-11-07T00:43:33.787Z,1020.99602988
2018-11-07T00:43:46.189Z,1020.99602988
2018-11-07T00:43:58.591Z,1020.99602988
2018-11-07T00:44:10.983Z,1021.02989376
2018-11-07T00:44:23.410Z,1021.02989376
2018-11-07T00:44:35.815Z,1021.02989376
2018-11-07T00:44:48.212Z,1021.02989376
2018-11-07T00:45:00.627Z,1020.89443824
2018-11-07T00:45:13.052Z,1020.89443824
2018-11-07T00:45:25.468Z,1020.89443824
2018-11-07T00:45:37.876Z,1020.89443824
2018-11-07T00:45:50.276Z,1020.89443824
2018-11-07T00:46:02.688Z,1020.99602988
2018-11-07T00:46:15.108Z,1020.99602988
2018-11-07T00:46:27.507Z,1020.99602988
2018-11-07T00:46:39.966Z,1020.99602988
2018-11-07T00:46:52.394Z,1020.99602988
2018-11-07T00:47:04.794Z,1020.962166
2018-11-07T00:47:17.198Z,1020.962166
2018-11-07T00:47:29.740Z,1020.962166
2018-11-07T00:47:42.124Z,1020.962166
2018-11-07T00:47:54.542Z,1020.962166
2018-11-07T00:48:06.970Z,1020.99602988
2018-11-07T00:48:19.348Z,1020.99602988
2018-11-07T00:48:31.752Z,1020.99602988
2018-11-07T00:48:44.141Z,1020.99602988
2018-11-07T00:48:56.574Z,1020.99602988
2018-11-07T00:49:09.020Z,1020.92830212
2018-11-07T00:49:21.431Z,1020.92830212
2018-11-07T00:49:33.837Z,1020.92830212
2018-11-07T00:49:46.395Z,1020.92830212
2018-11-07T00:49:58.805Z,1020.92830212
2018-11-07T00:50:11.203Z,1020.962166
2018-11-07T00:50:23.663Z,1020.962166
2018-11-07T00:50:36.087Z,1020.962166
2018-11-07T00:50:48.492Z,1020.962166
2018-11-07T00:51:00.875Z,1020.962166
2018-11-07T00:51:13.281Z,1020.962166
2018-11-07T00:51:25.671Z,1020.962166
2018-11-07T00:51:38.091Z,1020.962166
2018-11-07T00:51:50.509Z,1020.962166
2018-11-07T00:52:02.938Z,1020.89443824
2018-11-07T00:52:15.354Z,1020.89443824
2018-11-07T00:52:27.748Z,1020.89443824
2018-11-07T00:52:40.163Z,1020.89443824
2018-11-07T00:52:52.569Z,1020.89443824
2018-11-07T00:53:04.960Z,1020.92830212
2018-11-07T00:53:17.354Z,1020.92830212
2018-11-07T00:53:29.796Z,1020.92830212
2018-11-07T00:53:42.205Z,1020.92830212
2018-11-07T00:53:54.638Z,1020.92830212
2018-11-07T00:54:07.056Z,1020.92830212
2018-11-07T00:54:19.450Z,1020.92830212
2018-11-07T00:54:31.940Z,1020.92830212
2018-11-07T00:54:44.412Z,1020.92830212
2018-11-07T00:54:56.824Z,1020.92830212
2018-11-07T00:55:09.269Z,1020.962166
2018-11-07T00:55:21.688Z,1020.962166
2018-11-07T00:55:34.144Z,1020.962166
2018-11-07T00:55:46.553Z,1020.962166
2018-11-07T00:55:58.953Z,1020.962166
2018-11-07T00:56:11.350Z,1020.92830212
2018-11-07T00:56:23.758Z,1020.92830212
2018-11-07T00:56:36.166Z,1020.92830212
2018-11-07T00:56:48.561Z,1020.92830212
2018-11-07T00:57:00.959Z,1020.92830212
2018-11-07T00:57:13.399Z,1020.92830212
2018-11-07T00:57:25.801Z,1020.92830212
2018-11-07T00:57:38.193Z,1020.92830212
2018-11-07T00:57:50.715Z,1020.92830212
2018-11-07T00:58:03.922Z,1020.962166
2018-11-07T00:58:17.863Z,1020.962166
2018-11-07T00:58:30.275Z,1020.962166
2018-11-07T00:58:42.686Z,1020.962166
2018-11-07T00:58:55.112Z,1020.962166
2018-11-07T00:59:07.509Z,1020.92830212
2018-11-07T00:59:19.916Z,1020.92830212
2018-11-07T00:59:32.332Z,1020.92830212
2018-11-07T00:59:44.718Z,1020.92830212
2018-11-07T00:59:57.213Z,1020.92830212
2018-11-07T01:00:09.617Z,1020.92830212
2018-11-07T01:00:22.028Z,1020.92830212
2018-11-07T01:00:34.456Z,1020.92830212
2018-11-07T01:00:46.877Z,1020.92830212
2018-11-07T01:00:59.298Z,1020.92830212
2018-11-07T01:01:11.702Z,1020.962166
2018-11-07T01:01:24.104Z,1020.962166
2018-11-07T01:01:36.514Z,1020.962166
2018-11-07T01:01:48.898Z,1020.962166
2018-11-07T01:02:01.451Z,1020.962166
2018-11-07T01:02:13.896Z,1020.962166
2018-11-07T01:02:26.310Z,1020.962166
2018-11-07T01:02:38.709Z,1020.962166
2018-11-07T01:02:51.123Z,1020.962166
2018-11-07T01:03:03.522Z,1020.99602988
2018-11-07T01:03:15.933Z,1020.99602988
2018-11-07T01:03:28.341Z,1020.99602988
2018-11-07T01:03:40.766Z,1020.99602988
2018-11-07T01:03:53.153Z,1020.99602988
2018-11-07T01:04:05.537Z,1020.92830212
2018-11-07T01:04:17.975Z,1020.92830212
2018-11-07T01:04:30.365Z,1020.92830212
2018-11-07T01:04:42.909Z,1020.92830212
2018-11-07T01:04:55.310Z,1020.92830212
2018-11-07T01:05:07.725Z,1020.99602988
2018-11-07T01:05:20.132Z,1020.99602988
2018-11-07T01:05:32.586Z,1020.99602988
2018-11-07T01:05:45.012Z,1020.99602988
2018-11-07T01:05:57.458Z,1020.99602988
2018-11-07T01:06:09.861Z,1020.962166
2018-11-07T01:06:22.283Z,1020.962166
2018-11-07T01:06:35.577Z,1020.962166
2018-11-07T01:06:47.965Z,1020.962166
2018-11-07T01:07:00.370Z,1020.99602988
2018-11-07T01:07:12.894Z,1020.99602988
2018-11-07T01:07:25.320Z,1020.99602988
2018-11-07T01:07:37.737Z,1020.99602988
2018-11-07T01:07:50.211Z,1020.99602988
2018-11-07T01:08:02.633Z,1020.99602988
2018-11-07T01:08:15.032Z,1020.99602988
2018-11-07T01:08:27.442Z,1020.99602988
2018-11-07T01:08:40.182Z,1020.99602988
2018-11-07T01:08:53.435Z,1020.99602988
2018-11-07T01:09:05.848Z,1021.06375765
2018-11-07T01:09:18.420Z,1021.06375765
2018-11-07T01:09:31.519Z,1021.06375765
2018-11-07T01:09:45.882Z,1021.06375765
2018-11-07T01:09:58.312Z,1021.06375765
2018-11-07T01:10:10.714Z,1020.92830212
2018-11-07T01:10:23.121Z,1020.92830212
2018-11-07T01:10:35.529Z,1020.92830212
2018-11-07T01:10:49.687Z,1020.92830212
2018-11-07T01:11:02.093Z,1021.02989376
2018-11-07T01:11:14.489Z,1021.02989376
2018-11-07T01:11:26.958Z,1021.02989376
2018-11-07T01:11:39.364Z,1021.02989376
2018-11-07T01:11:51.814Z,1021.02989376
2018-11-07T01:12:04.263Z,1021.02989376
2018-11-07T01:12:16.725Z,1021.02989376
2018-11-07T01:12:29.120Z,1021.02989376
2018-11-07T01:12:41.533Z,1021.02989376
2018-11-07T01:12:53.964Z,1021.02989376
2018-11-07T01:13:06.529Z,1021.02989376
2018-11-07T01:13:18.922Z,1021.02989376
2018-11-07T01:13:31.329Z,1021.02989376
2018-11-07T01:13:43.742Z,1021.02989376
2018-11-07T01:13:56.129Z,1021.02989376
2018-11-07T01:14:08.589Z,1020.99602988
2018-11-07T01:14:20.993Z,1020.99602988
2018-11-07T01:14:33.388Z,1020.99602988
2018-11-07T01:14:45.780Z,1020.99602988
2018-11-07T01:14:58.175Z,1020.99602988
2018-11-07T01:15:10.588Z,1021.02989376
2018-11-07T01:15:23.002Z,1021.02989376
2018-11-07T01:15:35.403Z,1021.02989376
2018-11-07T01:15:47.791Z,1021.02989376
2018-11-07T01:16:00.178Z,1021.02989376
2018-11-07T01:16:12.582Z,1021.02989376
2018-11-07T01:16:25.007Z,1021.02989376
2018-11-07T01:16:37.968Z,1021.02989376
2018-11-07T01:16:51.835Z,1021.02989376
2018-11-07T01:17:04.348Z,1020.99602988
2018-11-07T01:17:16.787Z,1020.99602988
2018-11-07T01:17:29.185Z,1020.99602988
2018-11-07T01:17:41.609Z,1020.99602988
2018-11-07T01:17:54.028Z,1020.99602988
2018-11-07T01:18:06.416Z,1021.09762153
2018-11-07T01:18:18.800Z,1021.09762153
2018-11-07T01:18:31.190Z,1021.09762153
2018-11-07T01:18:43.573Z,1021.09762153
2018-11-07T01:18:55.967Z,1021.09762153
2018-11-07T01:19:08.375Z,1020.99602988
2018-11-07T01:19:20.795Z,1020.99602988
2018-11-07T01:19:33.190Z,1020.99602988
2018-11-07T01:19:45.573Z,1020.99602988
2018-11-07T01:19:57.963Z,1020.99602988
2018-11-07T01:20:10.358Z,1020.99602988
2018-11-07T01:20:23.038Z,1020.99602988
2018-11-07T01:20:35.431Z,1020.99602988
2018-11-07T01:20:47.907Z,1020.99602988
2018-11-07T01:21:00.457Z,1021.06375765
2018-11-07T01:21:12.862Z,1021.06375765
2018-11-07T01:21:25.263Z,1021.06375765
2018-11-07T01:21:37.656Z,1021.06375765
2018-11-07T01:21:50.055Z,1021.06375765
2018-11-07T01:22:02.444Z,1020.99602988
2018-11-07T01:22:15.326Z,1020.99602988
2018-11-07T01:22:28.676Z,1020.99602988
2018-11-07T01:22:41.077Z,1020.99602988
2018-11-07T01:22:53.509Z,1020.99602988
2018-11-07T01:23:05.965Z,1021.02989376
2018-11-07T01:23:18.488Z,1021.02989376
2018-11-07T01:23:30.881Z,1021.02989376
2018-11-07T01:23:43.292Z,1021.02989376
2018-11-07T01:23:55.692Z,1021.02989376
2018-11-07T01:24:08.244Z,1020.99602988
2018-11-07T01:24:20.629Z,1020.99602988
2018-11-07T01:24:33.032Z,1020.99602988
2018-11-07T01:24:45.612Z,1020.99602988
2018-11-07T01:24:58.012Z,1020.99602988
2018-11-07T01:25:10.593Z,1020.962166
2018-11-07T01:25:23.023Z,1020.962166
2018-11-07T01:25:35.429Z,1020.962166
2018-11-07T01:25:47.827Z,1020.962166
2018-11-07T01:26:00.225Z,1020.92830212
2018-11-07T01:26:12.618Z,1020.92830212
2018-11-07T01:26:25.030Z,1020.92830212
2018-11-07T01:26:37.425Z,1020.92830212
2018-11-07T01:26:49.820Z,1020.92830212
2018-11-07T01:27:02.305Z,1020.99602988
2018-11-07T01:27:14.699Z,1020.99602988
2018-11-07T01:27:27.099Z,1020.99602988
2018-11-07T01:27:39.550Z,1020.99602988
2018-11-07T01:27:52.011Z,1020.99602988
2018-11-07T01:28:04.842Z,1020.89443824
2018-11-07T01:28:18.346Z,1020.89443824
2018-11-07T01:28:31.768Z,1020.89443824
2018-11-07T01:28:44.154Z,1020.89443824
2018-11-07T01:28:57.014Z,1020.89443824
2018-11-07T01:29:09.454Z,1020.99602988
2018-11-07T01:29:21.857Z,1020.99602988
2018-11-07T01:29:34.253Z,1020.99602988
2018-11-07T01:29:46.666Z,1020.99602988
2018-11-07T01:29:59.081Z,1020.99602988
2018-11-07T01:30:11.531Z,1020.99602988
2018-11-07T01:30:23.945Z,1020.99602988
2018-11-07T01:30:36.358Z,1020.99602988
2018-11-07T01:30:48.746Z,1020.99602988
2018-11-07T01:31:01.151Z,1020.92830212
2018-11-07T01:31:13.556Z,1020.92830212
2018-11-07T01:31:25.973Z,1020.92830212
2018-11-07T01:31:38.374Z,1020.92830212
2018-11-07T01:31:50.785Z,1020.92830212
2018-11-07T01:32:03.428Z,1020.92830212
2018-11-07T01:32:15.845Z,1020.92830212
2018-11-07T01:32:28.305Z,1020.92830212
2018-11-07T01:32:40.715Z,1020.92830212
2018-11-07T01:32:53.132Z,1020.92830212
2018-11-07T01:33:05.664Z,1020.86057436
2018-11-07T01:33:18.068Z,1020.86057436
2018-11-07T01:33:30.537Z,1020.86057436
2018-11-07T01:33:42.956Z,1020.86057436
2018-11-07T01:33:55.357Z,1020.86057436
2018-11-07T01:34:07.761Z,1020.82671048
2018-11-07T01:34:20.315Z,1020.82671048
2018-11-07T01:34:32.735Z,1020.82671048
2018-11-07T01:34:45.117Z,1020.82671048
2018-11-07T01:34:57.515Z,1020.82671048
2018-11-07T01:35:09.926Z,1020.89443824
2018-11-07T01:35:22.354Z,1020.89443824
2018-11-07T01:35:34.733Z,1020.89443824
2018-11-07T01:35:47.144Z,1020.89443824
2018-11-07T01:35:59.542Z,1020.89443824
2018-11-07T01:36:12.122Z,1020.89443824
2018-11-07T01:36:24.513Z,1020.89443824
2018-11-07T01:36:36.897Z,1020.89443824
2018-11-07T01:36:49.306Z,1020.89443824
2018-11-07T01:37:01.723Z,1020.82671048
2018-11-07T01:37:14.117Z,1020.82671048
2018-11-07T01:37:26.518Z,1020.82671048
2018-11-07T01:37:38.986Z,1020.82671048
2018-11-07T01:37:51.409Z,1020.82671048
2018-11-07T01:38:03.820Z,1020.82671048
2018-11-07T01:38:16.232Z,1020.82671048
2018-11-07T01:38:28.628Z,1020.82671048
2018-11-07T01:38:41.013Z,1020.82671048
2018-11-07T01:38:53.402Z,1020.82671048
2018-11-07T01:39:05.797Z,1020.89443824
2018-11-07T01:39:18.209Z,1020.89443824
2018-11-07T01:39:30.624Z,1020.89443824
2018-11-07T01:39:43.061Z,1020.89443824
2018-11-07T01:39:55.464Z,1020.89443824
2018-11-07T01:40:07.873Z,1020.89443824
2018-11-07T01:40:20.292Z,1020.89443824
2018-11-07T01:40:32.697Z,1020.89443824
2018-11-07T01:40:45.108Z,1020.89443824
2018-11-07T01:40:57.645Z,1020.89443824
2018-11-07T01:41:10.041Z,1020.79284659
2018-11-07T01:41:22.453Z,1020.79284659
2018-11-07T01:41:34.858Z,1020.79284659
2018-11-07T01:41:47.429Z,1020.79284659
2018-11-07T01:42:00.763Z,1020.72511883
2018-11-07T01:42:14.551Z,1020.72511883
2018-11-07T01:42:26.985Z,1020.72511883
2018-11-07T01:42:39.414Z,1020.72511883
2018-11-07T01:42:51.824Z,1020.72511883
2018-11-07T01:43:04.247Z,1020.75898271
2018-11-07T01:43:16.917Z,1020.75898271
2018-11-07T01:43:29.320Z,1020.75898271
2018-11-07T01:43:41.727Z,1020.75898271
2018-11-07T01:43:54.150Z,1020.75898271
2018-11-07T01:44:06.607Z,1020.65739107
2018-11-07T01:44:19.012Z,1020.65739107
2018-11-07T01:44:31.424Z,1020.65739107
2018-11-07T01:44:43.839Z,1020.65739107
2018-11-07T01:44:56.237Z,1020.65739107
2018-11-07T01:45:08.635Z,1020.62352719
2018-11-07T01:45:21.039Z,1020.62352719
2018-11-07T01:45:33.429Z,1020.62352719
2018-11-07T01:45:45.820Z,1020.62352719
2018-11-07T01:45:58.213Z,1020.62352719
2018-11-07T01:46:10.605Z,1020.55579942
2018-11-07T01:46:23.094Z,1020.55579942
2018-11-07T01:46:35.504Z,1020.55579942
2018-11-07T01:46:47.939Z,1020.55579942
2018-11-07T01:47:00.356Z,1020.52193554
2018-11-07T01:47:12.757Z,1020.52193554
2018-11-07T01:47:25.241Z,1020.52193554
2018-11-07T01:47:37.645Z,1020.52193554
2018-11-07T01:47:50.035Z,1020.52193554
2018-11-07T01:48:02.483Z,1020.55579942
2018-11-07T01:48:14.916Z,1020.55579942
2018-11-07T01:48:27.349Z,1020.55579942
2018-11-07T01:48:39.765Z,1020.55579942
2018-11-07T01:48:52.165Z,1020.55579942
2018-11-07T01:49:04.565Z,1020.62352719
2018-11-07T01:49:16.965Z,1020.62352719
2018-11-07T01:49:29.398Z,1020.62352719
2018-11-07T01:49:41.792Z,1020.62352719
2018-11-07T01:49:54.269Z,1020.62352719
2018-11-07T01:50:06.663Z,1020.55579942
2018-11-07T01:50:19.075Z,1020.55579942
2018-11-07T01:50:31.471Z,1020.55579942
2018-11-07T01:50:43.878Z,1020.55579942
2018-11-07T01:50:56.281Z,1020.55579942
2018-11-07T01:51:08.691Z,1020.5896633
2018-11-07T01:51:21.128Z,1020.5896633
2018-11-07T01:51:33.540Z,1020.5896633
2018-11-07T01:51:45.938Z,1020.5896633
2018-11-07T01:51:58.331Z,1020.5896633
2018-11-07T01:52:10.725Z,1020.65739107
2018-11-07T01:52:23.196Z,1020.65739107
2018-11-07T01:52:35.608Z,1020.65739107
2018-11-07T01:52:48.023Z,1020.65739107
2018-11-07T01:53:00.593Z,1020.62352719
2018-11-07T01:53:13.016Z,1020.62352719
2018-11-07T01:53:25.436Z,1020.62352719
2018-11-07T01:53:37.811Z,1020.62352719
2018-11-07T01:53:50.230Z,1020.62352719
2018-11-07T01:54:02.666Z,1020.48807166
2018-11-07T01:54:15.078Z,1020.48807166
2018-11-07T01:54:27.457Z,1020.48807166
2018-11-07T01:54:39.849Z,1020.48807166
2018-11-07T01:54:52.249Z,1020.48807166
2018-11-07T01:55:04.653Z,1020.45420778
2018-11-07T01:55:17.087Z,1020.45420778
2018-11-07T01:55:29.499Z,1020.45420778
2018-11-07T01:55:41.936Z,1020.45420778
2018-11-07T01:55:54.343Z,1020.45420778
2018-11-07T01:56:06.753Z,1020.38648001
2018-11-07T01:56:19.154Z,1020.38648001
2018-11-07T01:56:31.548Z,1020.38648001
2018-11-07T01:56:43.938Z,1020.38648001
2018-11-07T01:56:56.328Z,1020.38648001
2018-11-07T01:57:08.743Z,1020.4203439
2018-11-07T01:57:21.123Z,1020.4203439
2018-11-07T01:57:33.526Z,1020.4203439
2018-11-07T01:57:45.971Z,1020.4203439
2018-11-07T01:57:58.400Z,1020.4203439
2018-11-07T01:58:10.794Z,1020.4203439
2018-11-07T01:58:23.201Z,1020.4203439
2018-11-07T01:58:35.627Z,1020.4203439
2018-11-07T01:58:48.059Z,1020.4203439
2018-11-07T01:59:00.476Z,1020.35261613
2018-11-07T01:59:12.891Z,1020.35261613
2018-11-07T01:59:25.347Z,1020.35261613
2018-11-07T01:59:37.761Z,1020.35261613
2018-11-07T01:59:50.180Z,1020.35261613
2018-11-07T02:00:02.595Z,1020.38648001
2018-11-07T02:00:15.043Z,1020.38648001
2018-11-07T02:00:27.463Z,1020.38648001
2018-11-07T02:00:39.878Z,1020.38648001
2018-11-07T02:00:52.316Z,1020.38648001
2018-11-07T02:01:04.734Z,1020.45420778
2018-11-07T02:01:17.169Z,1020.45420778
2018-11-07T02:01:29.574Z,1020.45420778
2018-11-07T02:01:42.002Z,1020.45420778
2018-11-07T02:01:54.581Z,1020.45420778
2018-11-07T02:02:06.990Z,1020.31875225
2018-11-07T02:02:19.408Z,1020.31875225
2018-11-07T02:02:31.836Z,1020.31875225
2018-11-07T02:02:44.273Z,1020.31875225
2018-11-07T02:02:56.683Z,1020.31875225
2018-11-07T02:03:09.107Z,1020.31875225
2018-11-07T02:03:21.494Z,1020.31875225
2018-11-07T02:03:33.897Z,1020.31875225
2018-11-07T02:03:46.281Z,1020.31875225
2018-11-07T02:03:58.687Z,1020.31875225
2018-11-07T02:04:11.107Z,1020.35261613
2018-11-07T02:04:23.518Z,1020.35261613
2018-11-07T02:04:35.923Z,1020.35261613
2018-11-07T02:04:48.423Z,1020.35261613
2018-11-07T02:05:00.819Z,1020.38648001
2018-11-07T02:05:13.243Z,1020.38648001
2018-11-07T02:05:25.689Z,1020.38648001
2018-11-07T02:05:38.097Z,1020.38648001
2018-11-07T02:05:50.498Z,1020.38648001
2018-11-07T02:06:02.879Z,1020.28488837
2018-11-07T02:06:15.297Z,1020.28488837
2018-11-07T02:06:27.713Z,1020.28488837
2018-11-07T02:06:40.105Z,1020.28488837
2018-11-07T02:06:52.636Z,1020.28488837
2018-11-07T02:07:05.047Z,1020.28488837
2018-11-07T02:07:17.644Z,1020.28488837
2018-11-07T02:07:30.086Z,1020.28488837
2018-11-07T02:07:42.476Z,1020.28488837
2018-11-07T02:07:54.871Z,1020.28488837
2018-11-07T02:08:07.319Z,1020.25102449
2018-11-07T02:08:19.742Z,1020.25102449
2018-11-07T02:08:32.136Z,1020.25102449